aviador You're here:

LFKB Decoded Metar

BASTIA in CORSE ISL.
Report Time2017-08-21 13:30:00
UTC Time2017-08-21 13:56:15
Flight Rules vfr VFR
Wind020° at 09 kt
W.Decomp.*RWY 34: 7.1 kt HW 5.5 kt RCW
W.Rank020° ranks 13
Current wind is above 020° avg. (7.3)
Visibility9999 m
Phenomena:N/A
Clouds:Few 030 Hf
Expected CloudBase > 8,000 ft AGL from Temp-Dew spread
CeilingNone
Temp29°C (ISA +14)
Dew Point09°C (29% RH)
Heat Index27.8°C
AAT25.6°C
QNH1017 hPa
Density Alt1,680 ft
Elevation39 ft
Report Wrong Elevation
Raw Report
METAR LFKB 211330Z 02009KT 350V050 9999 FEW030 29/09 Q1017 NOSIG=

Extra information for LFKB:More info

Metar Taf Metar & Taf Last 4 Metars F.Rules Stats Wind Profile Meteogram Temp Stats Airport Information Weather charts Add Link Nearby VenuesMetar ALERT Operation Metar Decoded Social comments